sensor_id;sensor_type;location;lat;lon;timestamp;P1;durP1;ratioP1;P2;durP2;ratioP2
15449;SDS011;7826;49.784;9.934;2024-01-06T00:02:01;84.70;;;29.73;;
15449;SDS011;7826;49.784;9.934;2024-01-06T00:04:28;88.23;;;31.97;;
15449;SDS011;7826;49.784;9.934;2024-01-06T00:06:54;104.83;;;32.27;;
15449;SDS011;7826;49.784;9.934;2024-01-06T00:09:20;80.67;;;29.57;;
15449;SDS011;7826;49.784;9.934;2024-01-06T00:11:46;106.67;;;32.03;;
15449;SDS011;7826;49.784;9.934;2024-01-06T00:14:12;96.73;;;31.20;;
15449;SDS011;7826;49.784;9.934;2024-01-06T00:16:38;91.20;;;29.20;;
15449;SDS011;7826;49.784;9.934;2024-01-06T00:19:04;90.00;;;30.70;;
15449;SDS011;7826;49.784;9.934;2024-01-06T00:21:30;118.53;;;33.10;;
15449;SDS011;7826;49.784;9.934;2024-01-06T00:23:57;100.40;;;31.53;;
15449;SDS011;7826;49.784;9.934;2024-01-06T00:26:23;82.67;;;29.47;;
15449;SDS011;7826;49.784;9.934;2024-01-06T00:28:50;85.33;;;30.33;;
15449;SDS011;7826;49.784;9.934;2024-01-06T00:31:16;79.57;;;30.40;;
15449;SDS011;7826;49.784;9.934;2024-01-06T00:33:42;107.93;;;30.97;;
15449;SDS011;7826;49.784;9.934;2024-01-06T00:36:09;79.37;;;29.00;;
15449;SDS011;7826;49.784;9.934;2024-01-06T00:38:35;90.20;;;31.27;;
15449;SDS011;7826;49.784;9.934;2024-01-06T00:41:01;113.30;;;31.97;;
15449;SDS011;7826;49.784;9.934;2024-01-06T00:43:27;76.50;;;28.73;;
15449;SDS011;7826;49.784;9.934;2024-01-06T00:45:54;76.20;;;30.00;;
15449;SDS011;7826;49.784;9.934;2024-01-06T00:48:20;90.90;;;32.20;;
15449;SDS011;7826;49.784;9.934;2024-01-06T00:50:46;100.87;;;33.10;;
15449;SDS011;7826;49.784;9.934;2024-01-06T00:53:12;73.00;;;28.70;;
15449;SDS011;7826;49.784;9.934;2024-01-06T00:55:38;85.10;;;30.00;;
15449;SDS011;7826;49.784;9.934;2024-01-06T00:58:04;92.90;;;31.40;;
15449;SDS011;7826;49.784;9.934;2024-01-06T01:00:30;78.50;;;31.10;;
15449;SDS011;7826;49.784;9.934;2024-01-06T01:02:56;106.93;;;33.63;;
15449;SDS011;7826;49.784;9.934;2024-01-06T01:05:23;77.17;;;30.13;;
15449;SDS011;7826;49.784;9.934;2024-01-06T01:07:49;80.10;;;29.93;;
15449;SDS011;7826;49.784;9.934;2024-01-06T01:10:15;90.20;;;33.80;;
15449;SDS011;7826;49.784;9.934;2024-01-06T01:12:41;77.03;;;29.17;;
15449;SDS011;7826;49.784;9.934;2024-01-06T01:15:07;90.10;;;31.57;;
15449;SDS011;7826;49.784;9.934;2024-01-06T01:17:33;85.83;;;30.87;;
15449;SDS011;7826;49.784;9.934;2024-01-06T01:20:00;86.77;;;32.10;;
15449;SDS011;7826;49.784;9.934;2024-01-06T01:22:26;90.83;;;33.47;;
15449;SDS011;7826;49.784;9.934;2024-01-06T01:24:52;107.30;;;33.73;;
15449;SDS011;7826;49.784;9.934;2024-01-06T01:27:18;90.07;;;31.47;;
15449;SDS011;7826;49.784;9.934;2024-01-06T01:29:44;89.47;;;32.53;;
15449;SDS011;7826;49.784;9.934;2024-01-06T01:32:10;90.43;;;33.50;;
15449;SDS011;7826;49.784;9.934;2024-01-06T01:34:36;107.53;;;35.87;;
15449;SDS011;7826;49.784;9.934;2024-01-06T01:37:02;124.07;;;34.47;;
15449;SDS011;7826;49.784;9.934;2024-01-06T01:39:29;81.70;;;32.80;;
15449;SDS011;7826;49.784;9.934;2024-01-06T01:41:55;93.37;;;33.30;;
15449;SDS011;7826;49.784;9.934;2024-01-06T01:44:21;88.73;;;31.97;;
15449;SDS011;7826;49.784;9.934;2024-01-06T01:46:47;88.30;;;31.47;;
15449;SDS011;7826;49.784;9.934;2024-01-06T01:49:14;90.37;;;31.20;;
15449;SDS011;7826;49.784;9.934;2024-01-06T01:51:40;93.27;;;32.77;;
15449;SDS011;7826;49.784;9.934;2024-01-06T01:54:09;94.33;;;33.10;;
15449;SDS011;7826;49.784;9.934;2024-01-06T01:56:35;82.20;;;31.03;;
15449;SDS011;7826;49.784;9.934;2024-01-06T01:59:05;94.70;;;32.03;;
15449;SDS011;7826;49.784;9.934;2024-01-06T02:01:36;78.90;;;30.20;;
15449;SDS011;7826;49.784;9.934;2024-01-06T02:04:03;95.03;;;32.50;;
15449;SDS011;7826;49.784;9.934;2024-01-06T02:06:29;83.03;;;31.20;;
15449;SDS011;7826;49.784;9.934;2024-01-06T02:08:55;90.37;;;34.03;;
15449;SDS011;7826;49.784;9.934;2024-01-06T02:11:21;100.70;;;34.60;;
15449;SDS011;7826;49.784;9.934;2024-01-06T02:13:48;90.33;;;32.33;;
15449;SDS011;7826;49.784;9.934;2024-01-06T02:16:14;79.00;;;30.17;;
15449;SDS011;7826;49.784;9.934;2024-01-06T02:18:40;83.37;;;32.80;;
15449;SDS011;7826;49.784;9.934;2024-01-06T02:21:06;93.60;;;33.70;;
15449;SDS011;7826;49.784;9.934;2024-01-06T02:23:34;87.70;;;32.97;;
15449;SDS011;7826;49.784;9.934;2024-01-06T02:26:01;86.03;;;32.20;;
15449;SDS011;7826;49.784;9.934;2024-01-06T02:28:28;99.70;;;34.47;;
15449;SDS011;7826;49.784;9.934;2024-01-06T02:30:54;104.17;;;35.47;;
15449;SDS011;7826;49.784;9.934;2024-01-06T02:33:21;85.63;;;32.00;;
15449;SDS011;7826;49.784;9.934;2024-01-06T02:35:49;86.77;;;32.90;;
15449;SDS011;7826;49.784;9.934;2024-01-06T02:38:16;95.77;;;32.13;;
15449;SDS011;7826;49.784;9.934;2024-01-06T02:40:42;84.00;;;30.90;;
15449;SDS011;7826;49.784;9.934;2024-01-06T02:43:08;82.73;;;30.93;;
15449;SDS011;7826;49.784;9.934;2024-01-06T02:45:35;90.37;;;32.10;;
15449;SDS011;7826;49.784;9.934;2024-01-06T02:48:01;77.23;;;30.33;;
15449;SDS011;7826;49.784;9.934;2024-01-06T02:50:28;95.63;;;31.93;;
15449;SDS011;7826;49.784;9.934;2024-01-06T02:52:54;99.47;;;32.53;;
15449;SDS011;7826;49.784;9.934;2024-01-06T02:55:20;97.33;;;31.63;;
15449;SDS011;7826;49.784;9.934;2024-01-06T02:57:46;79.90;;;29.67;;
15449;SDS011;7826;49.784;9.934;2024-01-06T03:00:12;89.70;;;29.80;;
15449;SDS011;7826;49.784;9.934;2024-01-06T03:02:39;104.57;;;31.23;;
15449;SDS011;7826;49.784;9.934;2024-01-06T03:05:07;93.97;;;30.10;;
15449;SDS011;7826;49.784;9.934;2024-01-06T03:07:34;71.70;;;28.03;;
15449;SDS011;7826;49.784;9.934;2024-01-06T03:10:00;92.80;;;30.37;;
15449;SDS011;7826;49.784;9.934;2024-01-06T03:12:26;85.97;;;28.87;;
15449;SDS011;7826;49.784;9.934;2024-01-06T03:14:52;73.13;;;27.47;;
15449;SDS011;7826;49.784;9.934;2024-01-06T03:17:18;77.53;;;27.57;;
15449;SDS011;7826;49.784;9.934;2024-01-06T03:19:45;73.20;;;27.47;;
15449;SDS011;7826;49.784;9.934;2024-01-06T03:22:11;83.53;;;27.93;;
15449;SDS011;7826;49.784;9.934;2024-01-06T03:24:37;76.60;;;26.83;;
15449;SDS011;7826;49.784;9.934;2024-01-06T03:27:03;77.50;;;28.43;;
15449;SDS011;7826;49.784;9.934;2024-01-06T03:29:29;103.03;;;31.23;;
15449;SDS011;7826;49.784;9.934;2024-01-06T03:31:55;108.77;;;30.70;;
15449;SDS011;7826;49.784;9.934;2024-01-06T03:34:23;68.67;;;26.67;;
15449;SDS011;7826;49.784;9.934;2024-01-06T03:36:49;76.83;;;27.03;;
15449;SDS011;7826;49.784;9.934;2024-01-06T03:39:15;66.50;;;26.67;;
15449;SDS011;7826;49.784;9.934;2024-01-06T03:41:41;70.57;;;26.03;;
15449;SDS011;7826;49.784;9.934;2024-01-06T03:44:07;76.83;;;27.23;;
15449;SDS011;7826;49.784;9.934;2024-01-06T03:46:34;74.30;;;27.07;;
15449;SDS011;7826;49.784;9.934;2024-01-06T03:49:00;66.47;;;25.47;;
15449;SDS011;7826;49.784;9.934;2024-01-06T03:51:26;70.40;;;26.80;;
15449;SDS011;7826;49.784;9.934;2024-01-06T03:53:53;71.13;;;25.23;;
15449;SDS011;7826;49.784;9.934;2024-01-06T03:56:19;65.23;;;25.00;;
15449;SDS011;7826;49.784;9.934;2024-01-06T03:58:46;92.83;;;29.03;;
15449;SDS011;7826;49.784;9.934;2024-01-06T04:01:12;78.33;;;27.67;;
15449;SDS011;7826;49.784;9.934;2024-01-06T04:03:38;84.07;;;28.63;;
15449;SDS011;7826;49.784;9.934;2024-01-06T04:06:07;115.90;;;32.07;;
15449;SDS011;7826;49.784;9.934;2024-01-06T04:08:35;89.07;;;29.90;;
15449;SDS011;7826;49.784;9.934;2024-01-06T04:11:02;73.53;;;27.17;;
15449;SDS011;7826;49.784;9.934;2024-01-06T04:13:28;72.67;;;26.33;;
15449;SDS011;7826;49.784;9.934;2024-01-06T04:15:54;109.43;;;30.07;;
15449;SDS011;7826;49.784;9.934;2024-01-06T04:18:20;106.97;;;29.00;;
15449;SDS011;7826;49.784;9.934;2024-01-06T04:20:46;74.77;;;27.67;;
15449;SDS011;7826;49.784;9.934;2024-01-06T04:23:12;67.43;;;25.00;;
15449;SDS011;7826;49.784;9.934;2024-01-06T04:25:38;106.93;;;29.80;;
15449;SDS011;7826;49.784;9.934;2024-01-06T04:28:05;86.17;;;28.13;;
15449;SDS011;7826;49.784;9.934;2024-01-06T04:30:31;81.30;;;24.97;;
15449;SDS011;7826;49.784;9.934;2024-01-06T04:32:57;103.57;;;27.77;;
15449;SDS011;7826;49.784;9.934;2024-01-06T04:35:23;75.30;;;26.27;;
15449;SDS011;7826;49.784;9.934;2024-01-06T04:37:49;81.63;;;26.90;;
15449;SDS011;7826;49.784;9.934;2024-01-06T04:40:15;68.77;;;26.10;;
15449;SDS011;7826;49.784;9.934;2024-01-06T04:42:42;78.47;;;25.70;;
15449;SDS011;7826;49.784;9.934;2024-01-06T04:45:09;79.37;;;26.93;;
15449;SDS011;7826;49.784;9.934;2024-01-06T04:47:35;80.13;;;26.57;;
15449;SDS011;7826;49.784;9.934;2024-01-06T04:50:01;71.47;;;24.73;;
15449;SDS011;7826;49.784;9.934;2024-01-06T04:52:28;81.33;;;27.97;;
15449;SDS011;7826;49.784;9.934;2024-01-06T04:54:55;79.40;;;27.37;;
15449;SDS011;7826;49.784;9.934;2024-01-06T04:57:21;85.30;;;28.20;;
15449;SDS011;7826;49.784;9.934;2024-01-06T04:59:47;81.10;;;27.77;;
15449;SDS011;7826;49.784;9.934;2024-01-06T05:02:14;73.70;;;26.70;;
15449;SDS011;7826;49.784;9.934;2024-01-06T05:04:40;63.50;;;27.00;;
15449;SDS011;7826;49.784;9.934;2024-01-06T05:07:06;68.80;;;25.73;;
15449;SDS011;7826;49.784;9.934;2024-01-06T05:09:32;87.20;;;29.47;;
15449;SDS011;7826;49.784;9.934;2024-01-06T05:11:59;92.17;;;29.03;;
15449;SDS011;7826;49.784;9.934;2024-01-06T05:14:25;71.03;;;27.37;;
15449;SDS011;7826;49.784;9.934;2024-01-06T05:16:51;74.13;;;27.80;;
15449;SDS011;7826;49.784;9.934;2024-01-06T05:19:17;92.73;;;28.30;;
15449;SDS011;7826;49.784;9.934;2024-01-06T05:21:46;68.97;;;25.03;;
15449;SDS011;7826;49.784;9.934;2024-01-06T05:24:13;95.80;;;30.07;;
15449;SDS011;7826;49.784;9.934;2024-01-06T05:26:39;115.70;;;29.87;;
15449;SDS011;7826;49.784;9.934;2024-01-06T05:29:05;92.50;;;30.43;;
15449;SDS011;7826;49.784;9.934;2024-01-06T05:31:31;75.87;;;28.07;;
15449;SDS011;7826;49.784;9.934;2024-01-06T05:33:57;76.50;;;26.47;;
15449;SDS011;7826;49.784;9.934;2024-01-06T05:36:23;98.97;;;30.50;;
15449;SDS011;7826;49.784;9.934;2024-01-06T05:38:50;90.33;;;27.77;;
15449;SDS011;7826;49.784;9.934;2024-01-06T05:41:16;86.53;;;27.63;;
15449;SDS011;7826;49.784;9.934;2024-01-06T05:43:43;78.87;;;27.83;;
15449;SDS011;7826;49.784;9.934;2024-01-06T05:46:09;73.10;;;27.27;;
15449;SDS011;7826;49.784;9.934;2024-01-06T05:48:36;74.07;;;28.13;;
15449;SDS011;7826;49.784;9.934;2024-01-06T05:51:05;82.50;;;28.70;;
15449;SDS011;7826;49.784;9.934;2024-01-06T05:53:31;87.50;;;28.53;;
15449;SDS011;7826;49.784;9.934;2024-01-06T05:55:58;83.67;;;27.90;;
15449;SDS011;7826;49.784;9.934;2024-01-06T05:58:24;84.13;;;29.40;;
15449;SDS011;7826;49.784;9.934;2024-01-06T06:00:50;72.67;;;28.33;;
15449;SDS011;7826;49.784;9.934;2024-01-06T06:03:16;88.97;;;29.27;;
15449;SDS011;7826;49.784;9.934;2024-01-06T06:05:42;71.83;;;26.30;;
15449;SDS011;7826;49.784;9.934;2024-01-06T06:08:09;88.80;;;30.60;;
15449;SDS011;7826;49.784;9.934;2024-01-06T06:10:35;86.97;;;28.80;;
15449;SDS011;7826;49.784;9.934;2024-01-06T06:13:17;74.93;;;27.97;;
15449;SDS011;7826;49.784;9.934;2024-01-06T06:15:43;72.70;;;28.33;;
15449;SDS011;7826;49.784;9.934;2024-01-06T06:18:09;69.07;;;26.80;;
15449;SDS011;7826;49.784;9.934;2024-01-06T06:20:35;72.63;;;29.53;;
15449;SDS011;7826;49.784;9.934;2024-01-06T06:23:01;74.27;;;29.10;;
15449;SDS011;7826;49.784;9.934;2024-01-06T06:25:27;76.87;;;28.07;;
15449;SDS011;7826;49.784;9.934;2024-01-06T06:27:53;68.50;;;26.50;;
15449;SDS011;7826;49.784;9.934;2024-01-06T06:30:20;96.57;;;30.53;;
15449;SDS011;7826;49.784;9.934;2024-01-06T06:32:46;72.03;;;26.43;;
15449;SDS011;7826;49.784;9.934;2024-01-06T06:35:13;73.47;;;27.43;;
15449;SDS011;7826;49.784;9.934;2024-01-06T06:37:39;73.00;;;28.17;;
15449;SDS011;7826;49.784;9.934;2024-01-06T06:40:05;74.10;;;28.77;;
15449;SDS011;7826;49.784;9.934;2024-01-06T06:42:32;76.93;;;27.33;;
15449;SDS011;7826;49.784;9.934;2024-01-06T06:44:58;83.57;;;28.57;;
15449;SDS011;7826;49.784;9.934;2024-01-06T06:47:24;70.83;;;27.80;;
15449;SDS011;7826;49.784;9.934;2024-01-06T06:49:50;75.17;;;28.13;;
15449;SDS011;7826;49.784;9.934;2024-01-06T06:52:16;70.80;;;27.10;;
15449;SDS011;7826;49.784;9.934;2024-01-06T06:54:42;71.07;;;28.03;;
15449;SDS011;7826;49.784;9.934;2024-01-06T06:57:08;73.77;;;27.47;;
15449;SDS011;7826;49.784;9.934;2024-01-06T06:59:34;78.37;;;29.77;;
15449;SDS011;7826;49.784;9.934;2024-01-06T07:02:01;76.73;;;29.23;;
15449;SDS011;7826;49.784;9.934;2024-01-06T07:04:27;74.33;;;28.50;;
15449;SDS011;7826;49.784;9.934;2024-01-06T07:06:53;81.10;;;29.10;;
15449;SDS011;7826;49.784;9.934;2024-01-06T07:09:19;68.53;;;28.00;;
15449;SDS011;7826;49.784;9.934;2024-01-06T07:11:48;77.03;;;30.40;;
15449;SDS011;7826;49.784;9.934;2024-01-06T07:14:15;76.80;;;29.43;;
15449;SDS011;7826;49.784;9.934;2024-01-06T07:16:41;81.67;;;30.23;;
15449;SDS011;7826;49.784;9.934;2024-01-06T07:19:07;77.40;;;30.13;;
15449;SDS011;7826;49.784;9.934;2024-01-06T07:21:34;72.10;;;28.20;;
15449;SDS011;7826;49.784;9.934;2024-01-06T07:24:00;84.13;;;31.03;;
15449;SDS011;7826;49.784;9.934;2024-01-06T07:26:28;77.53;;;30.23;;
15449;SDS011;7826;49.784;9.934;2024-01-06T07:28:55;73.33;;;30.93;;
15449;SDS011;7826;49.784;9.934;2024-01-06T07:31:21;71.63;;;30.47;;
15449;SDS011;7826;49.784;9.934;2024-01-06T07:33:47;81.50;;;31.37;;
15449;SDS011;7826;49.784;9.934;2024-01-06T07:36:13;91.60;;;31.10;;
15449;SDS011;7826;49.784;9.934;2024-01-06T07:38:39;87.63;;;33.00;;
15449;SDS011;7826;49.784;9.934;2024-01-06T07:41:06;85.17;;;33.03;;
15449;SDS011;7826;49.784;9.934;2024-01-06T07:43:32;90.77;;;33.63;;
15449;SDS011;7826;49.784;9.934;2024-01-06T07:45:58;81.00;;;33.40;;
15449;SDS011;7826;49.784;9.934;2024-01-06T07:48:24;78.23;;;32.00;;
15449;SDS011;7826;49.784;9.934;2024-01-06T07:50:51;92.20;;;33.27;;
15449;SDS011;7826;49.784;9.934;2024-01-06T07:53:17;82.60;;;30.63;;
15449;SDS011;7826;49.784;9.934;2024-01-06T07:55:43;76.23;;;30.77;;
15449;SDS011;7826;49.784;9.934;2024-01-06T07:58:09;84.23;;;32.83;;
15449;SDS011;7826;49.784;9.934;2024-01-06T08:00:37;78.50;;;30.80;;
15449;SDS011;7826;49.784;9.934;2024-01-06T08:03:03;85.57;;;32.37;;
15449;SDS011;7826;49.784;9.934;2024-01-06T08:05:31;75.23;;;30.23;;
15449;SDS011;7826;49.784;9.934;2024-01-06T08:07:58;81.97;;;32.10;;
15449;SDS011;7826;49.784;9.934;2024-01-06T08:10:24;86.03;;;32.53;;
15449;SDS011;7826;49.784;9.934;2024-01-06T08:12:50;86.90;;;32.70;;
15449;SDS011;7826;49.784;9.934;2024-01-06T08:15:16;80.50;;;32.10;;
15449;SDS011;7826;49.784;9.934;2024-01-06T08:17:42;77.27;;;31.07;;
15449;SDS011;7826;49.784;9.934;2024-01-06T08:20:08;86.97;;;31.37;;
15449;SDS011;7826;49.784;9.934;2024-01-06T08:22:35;80.10;;;29.80;;
15449;SDS011;7826;49.784;9.934;2024-01-06T08:25:01;84.23;;;31.43;;
15449;SDS011;7826;49.784;9.934;2024-01-06T08:27:28;77.63;;;31.47;;
15449;SDS011;7826;49.784;9.934;2024-01-06T08:29:54;75.23;;;29.83;;
15449;SDS011;7826;49.784;9.934;2024-01-06T08:32:20;84.23;;;29.90;;
15449;SDS011;7826;49.784;9.934;2024-01-06T08:34:46;95.53;;;31.70;;
15449;SDS011;7826;49.784;9.934;2024-01-06T08:37:12;93.47;;;31.03;;
15449;SDS011;7826;49.784;9.934;2024-01-06T08:39:39;84.63;;;30.10;;
15449;SDS011;7826;49.784;9.934;2024-01-06T08:42:06;84.83;;;30.67;;
15449;SDS011;7826;49.784;9.934;2024-01-06T08:44:32;89.67;;;33.90;;
15449;SDS011;7826;49.784;9.934;2024-01-06T08:46:58;76.03;;;30.27;;
15449;SDS011;7826;49.784;9.934;2024-01-06T08:49:24;79.13;;;30.40;;
15449;SDS011;7826;49.784;9.934;2024-01-06T08:51:51;74.63;;;29.03;;
15449;SDS011;7826;49.784;9.934;2024-01-06T08:54:17;85.43;;;30.37;;
15449;SDS011;7826;49.784;9.934;2024-01-06T08:56:43;72.97;;;29.63;;
15449;SDS011;7826;49.784;9.934;2024-01-06T08:59:09;70.63;;;26.77;;
15449;SDS011;7826;49.784;9.934;2024-01-06T09:01:35;87.87;;;31.97;;
15449;SDS011;7826;49.784;9.934;2024-01-06T09:04:02;81.13;;;30.00;;
15449;SDS011;7826;49.784;9.934;2024-01-06T09:06:29;77.90;;;28.73;;
15449;SDS011;7826;49.784;9.934;2024-01-06T09:08:55;73.30;;;28.87;;
15449;SDS011;7826;49.784;9.934;2024-01-06T09:11:21;81.73;;;29.27;;
15449;SDS011;7826;49.784;9.934;2024-01-06T09:13:47;76.17;;;29.33;;
15449;SDS011;7826;49.784;9.934;2024-01-06T09:16:13;83.30;;;31.10;;
15449;SDS011;7826;49.784;9.934;2024-01-06T09:18:39;81.00;;;29.17;;
15449;SDS011;7826;49.784;9.934;2024-01-06T09:21:05;77.40;;;28.40;;
15449;SDS011;7826;49.784;9.934;2024-01-06T09:23:32;76.17;;;27.57;;
15449;SDS011;7826;49.784;9.934;2024-01-06T09:25:58;70.33;;;28.97;;
15449;SDS011;7826;49.784;9.934;2024-01-06T09:28:24;80.43;;;28.77;;
15449;SDS011;7826;49.784;9.934;2024-01-06T09:30:50;77.13;;;27.47;;
15449;SDS011;7826;49.784;9.934;2024-01-06T09:33:18;74.30;;;27.17;;
15449;SDS011;7826;49.784;9.934;2024-01-06T09:35:44;73.13;;;27.47;;
15449;SDS011;7826;49.784;9.934;2024-01-06T09:38:10;91.17;;;30.20;;
15449;SDS011;7826;49.784;9.934;2024-01-06T09:40:37;81.50;;;28.50;;
15449;SDS011;7826;49.784;9.934;2024-01-06T09:43:11;78.03;;;29.30;;
15449;SDS011;7826;49.784;9.934;2024-01-06T09:45:38;71.60;;;27.53;;
15449;SDS011;7826;49.784;9.934;2024-01-06T09:48:09;90.60;;;30.80;;
15449;SDS011;7826;49.784;9.934;2024-01-06T09:50:41;75.80;;;28.03;;
15449;SDS011;7826;49.784;9.934;2024-01-06T09:53:08;75.47;;;28.57;;
15449;SDS011;7826;49.784;9.934;2024-01-06T09:55:36;77.80;;;27.70;;
15449;SDS011;7826;49.784;9.934;2024-01-06T09:58:04;70.97;;;27.03;;
15449;SDS011;7826;49.784;9.934;2024-01-06T10:00:31;72.60;;;28.90;;
15449;SDS011;7826;49.784;9.934;2024-01-06T10:02:58;73.77;;;26.70;;
15449;SDS011;7826;49.784;9.934;2024-01-06T10:05:24;83.87;;;28.67;;
15449;SDS011;7826;49.784;9.934;2024-01-06T10:07:50;67.97;;;27.43;;
15449;SDS011;7826;49.784;9.934;2024-01-06T10:10:16;69.67;;;26.93;;
15449;SDS011;7826;49.784;9.934;2024-01-06T10:12:42;81.70;;;27.90;;
15449;SDS011;7826;49.784;9.934;2024-01-06T10:15:09;74.23;;;28.40;;
15449;SDS011;7826;49.784;9.934;2024-01-06T10:17:37;87.93;;;31.93;;
15449;SDS011;7826;49.784;9.934;2024-01-06T10:20:10;81.27;;;29.67;;
15449;SDS011;7826;49.784;9.934;2024-01-06T10:22:38;72.97;;;29.93;;
15449;SDS011;7826;49.784;9.934;2024-01-06T10:25:07;81.77;;;30.30;;
15449;SDS011;7826;49.784;9.934;2024-01-06T10:27:37;72.83;;;27.20;;
15449;SDS011;7826;49.784;9.934;2024-01-06T10:30:05;74.40;;;26.33;;
15449;SDS011;7826;49.784;9.934;2024-01-06T10:32:34;72.33;;;28.30;;
15449;SDS011;7826;49.784;9.934;2024-01-06T10:35:02;74.10;;;28.20;;
15449;SDS011;7826;49.784;9.934;2024-01-06T10:37:29;75.13;;;27.70;;
15449;SDS011;7826;49.784;9.934;2024-01-06T10:40:12;73.87;;;27.43;;
15449;SDS011;7826;49.784;9.934;2024-01-06T10:42:41;76.17;;;26.83;;
15449;SDS011;7826;49.784;9.934;2024-01-06T10:45:08;73.63;;;29.30;;
15449;SDS011;7826;49.784;9.934;2024-01-06T10:47:36;77.43;;;29.43;;
15449;SDS011;7826;49.784;9.934;2024-01-06T10:50:03;73.23;;;27.63;;
15449;SDS011;7826;49.784;9.934;2024-01-06T10:52:30;77.77;;;28.30;;
15449;SDS011;7826;49.784;9.934;2024-01-06T10:54:57;80.43;;;28.23;;
15449;SDS011;7826;49.784;9.934;2024-01-06T10:57:24;70.33;;;26.87;;
15449;SDS011;7826;49.784;9.934;2024-01-06T10:59:51;81.00;;;29.40;;
15449;SDS011;7826;49.784;9.934;2024-01-06T11:02:18;73.43;;;27.93;;
15449;SDS011;7826;49.784;9.934;2024-01-06T11:04:48;70.97;;;28.70;;
15449;SDS011;7826;49.784;9.934;2024-01-06T11:07:17;76.13;;;27.83;;
15449;SDS011;7826;49.784;9.934;2024-01-06T11:09:47;65.90;;;26.00;;
15449;SDS011;7826;49.784;9.934;2024-01-06T11:12:31;75.63;;;26.77;;
15449;SDS011;7826;49.784;9.934;2024-01-06T11:14:57;72.40;;;26.10;;
15449;SDS011;7826;49.784;9.934;2024-01-06T11:20:26;78.40;;;27.33;;
15449;SDS011;7826;49.784;9.934;2024-01-06T11:22:53;78.00;;;28.33;;
15449;SDS011;7826;49.784;9.934;2024-01-06T11:25:20;68.63;;;28.07;;
15449;SDS011;7826;49.784;9.934;2024-01-06T11:27:48;73.57;;;30.33;;
15449;SDS011;7826;49.784;9.934;2024-01-06T11:30:24;72.23;;;28.90;;
15449;SDS011;7826;49.784;9.934;2024-01-06T11:32:52;72.73;;;26.20;;
15449;SDS011;7826;49.784;9.934;2024-01-06T11:35:19;71.70;;;27.33;;
15449;SDS011;7826;49.784;9.934;2024-01-06T11:40:22;72.80;;;28.57;;
15449;SDS011;7826;49.784;9.934;2024-01-06T11:42:58;77.10;;;29.60;;
15449;SDS011;7826;49.784;9.934;2024-01-06T11:45:26;72.63;;;28.23;;
15449;SDS011;7826;49.784;9.934;2024-01-06T11:47:56;65.63;;;26.73;;
15449;SDS011;7826;49.784;9.934;2024-01-06T11:50:28;66.53;;;29.07;;
15449;SDS011;7826;49.784;9.934;2024-01-06T11:52:58;61.50;;;26.80;;
15449;SDS011;7826;49.784;9.934;2024-01-06T11:55:25;67.90;;;26.87;;
15449;SDS011;7826;49.784;9.934;2024-01-06T11:57:57;70.00;;;28.90;;
15449;SDS011;7826;49.784;9.934;2024-01-06T12:00:27;67.47;;;28.80;;
15449;SDS011;7826;49.784;9.934;2024-01-06T12:03:00;74.20;;;27.13;;
15449;SDS011;7826;49.784;9.934;2024-01-06T12:05:27;61.47;;;27.27;;
15449;SDS011;7826;49.784;9.934;2024-01-06T12:07:57;68.70;;;28.23;;
15449;SDS011;7826;49.784;9.934;2024-01-06T12:10:27;61.70;;;27.23;;
15449;SDS011;7826;49.784;9.934;2024-01-06T12:12:55;65.77;;;28.27;;
15449;SDS011;7826;49.784;9.934;2024-01-06T12:15:34;67.30;;;27.57;;
15449;SDS011;7826;49.784;9.934;2024-01-06T12:18:03;63.90;;;26.80;;
15449;SDS011;7826;49.784;9.934;2024-01-06T12:20:30;64.77;;;26.73;;
15449;SDS011;7826;49.784;9.934;2024-01-06T12:22:57;64.10;;;27.80;;
15449;SDS011;7826;49.784;9.934;2024-01-06T12:25:23;65.00;;;28.30;;
15449;SDS011;7826;49.784;9.934;2024-01-06T12:27:51;65.20;;;26.40;;
15449;SDS011;7826;49.784;9.934;2024-01-06T12:30:19;61.10;;;27.10;;
15449;SDS011;7826;49.784;9.934;2024-01-06T12:32:47;58.63;;;26.30;;
15449;SDS011;7826;49.784;9.934;2024-01-06T12:35:14;56.63;;;26.00;;
15449;SDS011;7826;49.784;9.934;2024-01-06T12:37:41;58.40;;;28.40;;
15449;SDS011;7826;49.784;9.934;2024-01-06T12:40:08;57.07;;;25.43;;
15449;SDS011;7826;49.784;9.934;2024-01-06T12:42:35;54.60;;;25.97;;
15449;SDS011;7826;49.784;9.934;2024-01-06T12:45:02;54.77;;;24.57;;
15449;SDS011;7826;49.784;9.934;2024-01-06T12:47:28;47.30;;;23.07;;
15449;SDS011;7826;49.784;9.934;2024-01-06T12:49:55;56.90;;;26.77;;
15449;SDS011;7826;49.784;9.934;2024-01-06T12:52:21;51.97;;;24.63;;
15449;SDS011;7826;49.784;9.934;2024-01-06T12:54:47;50.37;;;24.07;;
15449;SDS011;7826;49.784;9.934;2024-01-06T12:57:13;53.27;;;24.23;;
15449;SDS011;7826;49.784;9.934;2024-01-06T12:59:39;49.80;;;24.20;;
15449;SDS011;7826;49.784;9.934;2024-01-06T13:02:05;56.40;;;24.77;;
15449;SDS011;7826;49.784;9.934;2024-01-06T13:04:31;58.67;;;26.03;;
15449;SDS011;7826;49.784;9.934;2024-01-06T13:06:57;59.93;;;26.53;;
15449;SDS011;7826;49.784;9.934;2024-01-06T13:09:24;52.30;;;24.13;;
15449;SDS011;7826;49.784;9.934;2024-01-06T13:11:51;53.43;;;24.37;;
15449;SDS011;7826;49.784;9.934;2024-01-06T13:14:18;55.77;;;26.13;;
15449;SDS011;7826;49.784;9.934;2024-01-06T13:16:44;52.40;;;26.00;;
15449;SDS011;7826;49.784;9.934;2024-01-06T13:19:11;53.00;;;26.83;;
15449;SDS011;7826;49.784;9.934;2024-01-06T13:21:37;55.10;;;24.93;;
15449;SDS011;7826;49.784;9.934;2024-01-06T13:24:06;54.00;;;26.17;;
15449;SDS011;7826;49.784;9.934;2024-01-06T13:26:32;56.83;;;26.70;;
15449;SDS011;7826;49.784;9.934;2024-01-06T13:28:58;53.90;;;26.17;;
15449;SDS011;7826;49.784;9.934;2024-01-06T13:31:25;53.87;;;25.07;;
15449;SDS011;7826;49.784;9.934;2024-01-06T13:33:52;58.03;;;26.97;;
15449;SDS011;7826;49.784;9.934;2024-01-06T13:36:19;58.40;;;28.20;;
15449;SDS011;7826;49.784;9.934;2024-01-06T13:38:46;57.83;;;26.33;;
15449;SDS011;7826;49.784;9.934;2024-01-06T13:41:14;52.73;;;25.73;;
15449;SDS011;7826;49.784;9.934;2024-01-06T13:43:40;55.50;;;26.37;;
15449;SDS011;7826;49.784;9.934;2024-01-06T13:46:07;52.87;;;25.57;;
15449;SDS011;7826;49.784;9.934;2024-01-06T13:48:33;55.10;;;26.90;;
15449;SDS011;7826;49.784;9.934;2024-01-06T13:50:59;58.67;;;25.13;;
15449;SDS011;7826;49.784;9.934;2024-01-06T13:53:25;54.10;;;24.93;;
15449;SDS011;7826;49.784;9.934;2024-01-06T13:55:51;52.77;;;25.67;;
15449;SDS011;7826;49.784;9.934;2024-01-06T13:58:18;51.17;;;24.77;;
15449;SDS011;7826;49.784;9.934;2024-01-06T14:00:44;51.13;;;25.00;;
15449;SDS011;7826;49.784;9.934;2024-01-06T14:03:10;51.60;;;24.73;;
15449;SDS011;7826;49.784;9.934;2024-01-06T14:05:37;53.30;;;23.33;;
15449;SDS011;7826;49.784;9.934;2024-01-06T14:08:03;47.90;;;23.43;;
15449;SDS011;7826;49.784;9.934;2024-01-06T14:10:29;47.43;;;23.30;;
15449;SDS011;7826;49.784;9.934;2024-01-06T14:12:57;56.20;;;25.70;;
15449;SDS011;7826;49.784;9.934;2024-01-06T14:15:23;55.77;;;26.40;;
15449;SDS011;7826;49.784;9.934;2024-01-06T14:17:52;50.33;;;26.50;;
15449;SDS011;7826;49.784;9.934;2024-01-06T14:20:19;48.63;;;24.13;;
15449;SDS011;7826;49.784;9.934;2024-01-06T14:22:45;54.50;;;25.70;;
15449;SDS011;7826;49.784;9.934;2024-01-06T14:25:12;56.23;;;25.17;;
15449;SDS011;7826;49.784;9.934;2024-01-06T14:27:38;56.17;;;24.93;;
15449;SDS011;7826;49.784;9.934;2024-01-06T14:30:05;49.00;;;24.47;;
15449;SDS011;7826;49.784;9.934;2024-01-06T14:32:35;49.13;;;22.93;;
15449;SDS011;7826;49.784;9.934;2024-01-06T14:35:05;44.97;;;23.23;;
15449;SDS011;7826;49.784;9.934;2024-01-06T14:37:35;47.00;;;22.90;;